Belmont, Idaho
Current Conditions -  °F | °C
As of 10:35 PM on Tuesday 27 Jan 2015 (Local Time) from KCOE Reporting Station
Overcast Overcast  
Wind Chill: 30°   Ceiling: 1400
Heat Index: 36°   Visibility: 10mi
Dew Point: 34°   Wind: 7mph
Humidity: 93%   Direction: 240°WSW
Pressure: 30.11"   Gusts: NA
Location:  47.9325°N, 116.647°W
Report Text: KCOE 280635Z AUTO 24006KT 10SM OVC014 02/01 A3011 RMK AO1
Loading
Personal Weather Stations






























Interactive Weather Map New forecast layout! Learn more

10-Day Weather Forecast

Advertisements
Track Severe Weather on mobile